createdAt,value
2016-10-08T00:00:00.744Z,88.21
2016-10-08T00:01:14.408Z,88.79
2016-10-08T00:02:27.465Z,88.98
2016-10-08T00:03:40.660Z,88.59
2016-10-08T00:07:09.611Z,89.07
2016-10-08T00:08:23.233Z,88.93
2016-10-08T00:09:37.034Z,89.32
2016-10-08T00:10:50.739Z,89.99
2016-10-08T00:12:04.358Z,89.89
2016-10-08T00:13:18.236Z,89.99
2016-10-08T00:14:31.853Z,89.99
2016-10-08T00:15:45.466Z,89.7
2016-10-08T00:16:59.020Z,89.99
2016-10-08T00:18:11.645Z,90.37
2016-10-08T00:19:25.328Z,89.99
2016-10-08T00:20:39.217Z,90.18
2016-10-08T00:21:52.835Z,90.08
2016-10-08T00:23:06.531Z,90.95
2016-10-08T00:24:19.670Z,90.66
2016-10-08T00:25:33.282Z,90.95
2016-10-08T00:26:46.964Z,91.05
2016-10-08T00:29:27.655Z,91
2016-10-08T00:30:41.279Z,91.67
2016-10-08T00:31:54.910Z,91.57
2016-10-08T00:33:08.911Z,91.28
2016-10-08T00:34:22.633Z,91.96
2016-10-08T00:35:35.876Z,91.77
2016-10-08T00:36:49.504Z,91.57
2016-10-08T00:38:03.137Z,91.57
2016-10-08T00:39:16.754Z,91.67
2016-10-08T00:40:30.374Z,91.38
2016-10-08T00:41:44.208Z,91.38
2016-10-08T00:42:57.828Z,91.48
2016-10-08T00:44:11.690Z,91.48
2016-10-08T00:45:25.297Z,90.95
2016-10-08T00:46:38.945Z,90.85
2016-10-08T00:47:52.528Z,91.48
2016-10-08T00:49:06.177Z,90.95
2016-10-08T00:50:19.797Z,91.42
2016-10-08T00:51:33.429Z,91.24
2016-10-08T00:52:47.067Z,91.62
2016-10-08T00:54:00.742Z,91.67
2016-10-08T00:55:14.386Z,91.19
2016-10-08T00:56:28.016Z,91.77
2016-10-08T00:57:41.693Z,91.57
2016-10-08T00:58:55.244Z,91.28
2016-10-08T01:00:09.153Z,91.57
2016-10-08T01:01:22.744Z,91.57
2016-10-08T01:02:36.164Z,91.67
2016-10-08T01:03:49.866Z,91.67
2016-10-08T01:05:03.424Z,91.77
2016-10-08T01:06:16.523Z,92.34
2016-10-08T01:07:30.223Z,92.15
2016-10-08T01:08:43.935Z,92.05
2016-10-08T01:09:57.573Z,92.15
2016-10-08T01:11:11.162Z,91.77
2016-10-08T01:12:24.811Z,91.96
2016-10-08T01:13:38.488Z,91.48
2016-10-08T01:14:52.224Z,91.77
2016-10-08T01:16:05.737Z,91.86
2016-10-08T01:17:19.747Z,92.34
2016-10-08T01:18:32.807Z,91.77
2016-10-08T01:19:46.272Z,92.05
2016-10-08T01:21:00.034Z,91.67
2016-10-08T01:22:13.781Z,91.57
2016-10-08T01:23:27.493Z,91.38
2016-10-08T01:24:41.169Z,91.38
2016-10-08T01:25:54.816Z,91.57
2016-10-08T01:27:08.503Z,91.28
2016-10-08T01:28:22.117Z,91.38
2016-10-08T01:29:35.680Z,91.19
2016-10-08T01:30:49.717Z,91.86
2016-10-08T01:32:03.332Z,91.86
2016-10-08T01:33:16.943Z,91.67
2016-10-08T01:34:30.573Z,91.09
2016-10-08T01:35:44.205Z,91.48
2016-10-08T01:36:57.868Z,91.38
2016-10-08T01:38:11.494Z,91.77
2016-10-08T01:39:25.132Z,91.38
2016-10-08T01:40:38.718Z,91.48
2016-10-08T01:41:52.366Z,91.28
2016-10-08T01:43:06.171Z,90.9
2016-10-08T01:44:19.756Z,91.48
2016-10-08T01:45:33.364Z,91.38
2016-10-08T01:46:47.093Z,91.38
2016-10-08T01:48:00.780Z,91.67
2016-10-08T01:49:13.329Z,91.67
2016-10-08T01:50:27.010Z,91.67
2016-10-08T01:51:40.740Z,91.57
2016-10-08T01:52:54.387Z,91.28
2016-10-08T01:54:08.034Z,91.77
2016-10-08T01:55:21.368Z,91.67
2016-10-08T01:56:35.097Z,91.77
2016-10-08T01:57:48.191Z,91.77
2016-10-08T01:59:01.903Z,91.77
2016-10-08T02:00:15.501Z,91.86
2016-10-08T02:01:29.142Z,91.77
2016-10-08T02:02:42.751Z,91.77
2016-10-08T02:03:56.616Z,91.67
2016-10-08T02:05:10.533Z,91.86
2016-10-08T02:06:24.409Z,91.77
2016-10-08T02:07:38.130Z,91.57
2016-10-08T02:08:51.836Z,92.34
2016-10-08T02:10:05.455Z,92.24
2016-10-08T02:11:19.073Z,92.05
2016-10-08T02:12:32.717Z,92.15
2016-10-08T02:13:46.176Z,92.63
2016-10-08T02:14:59.823Z,92.72
2016-10-08T02:16:13.758Z,92.97
2016-10-08T02:17:27.368Z,93.06
2016-10-08T02:18:41.041Z,92.97
2016-10-08T02:19:54.697Z,92.87
2016-10-08T02:21:07.818Z,92.87
2016-10-08T02:22:21.510Z,92.77
2016-10-08T02:23:35.193Z,92.05
2016-10-08T02:24:48.891Z,92.58
2016-10-08T02:26:01.977Z,92.39
2016-10-08T02:27:15.580Z,92.34
2016-10-08T02:28:29.228Z,92.05
2016-10-08T02:30:13.960Z,92.2
2016-10-08T02:31:27.630Z,92.15
2016-10-08T02:32:41.250Z,91.86
2016-10-08T02:33:54.249Z,92.2
2016-10-08T02:35:07.947Z,92.01
2016-10-08T02:36:21.595Z,91.82
2016-10-08T02:37:35.257Z,91.14
2016-10-08T02:38:48.877Z,91.24
2016-10-08T02:40:02.514Z,91.24
2016-10-08T02:41:16.156Z,91.28
2016-10-08T02:42:29.330Z,91.24
2016-10-08T02:43:42.988Z,91.67
2016-10-08T02:44:56.366Z,91.38
2016-10-08T02:46:10.038Z,91.38
2016-10-08T02:47:23.730Z,91.77
2016-10-08T02:48:37.351Z,91.57
2016-10-08T02:49:50.993Z,91.77
2016-10-08T02:51:04.610Z,91.57
2016-10-08T02:52:18.236Z,92.05
2016-10-08T02:53:31.809Z,91.67
2016-10-08T02:54:45.425Z,92.24
2016-10-08T02:55:59.131Z,92.15
2016-10-08T02:57:12.705Z,91.96
2016-10-08T02:58:26.322Z,92.15
2016-10-08T02:59:39.971Z,91.77
2016-10-08T03:00:53.613Z,91.77
2016-10-08T03:02:06.652Z,91.77
2016-10-08T03:03:20.238Z,92.05
2016-10-08T03:04:33.815Z,91.96
2016-10-08T03:05:47.413Z,91.67
2016-10-08T03:07:01.011Z,91.86
2016-10-08T03:08:14.324Z,92.34
2016-10-08T03:09:27.965Z,92.63
2016-10-08T03:10:41.571Z,93.01
2016-10-08T03:11:55.228Z,93.21
2016-10-08T03:13:09.203Z,93.68
2016-10-08T03:14:22.791Z,93.4
2016-10-08T03:15:36.481Z,94.21
2016-10-08T03:16:50.090Z,93.83
2016-10-08T03:18:03.722Z,93.83
2016-10-08T03:19:17.290Z,94.21
2016-10-08T03:20:30.930Z,93.97
2016-10-08T03:21:44.597Z,93.59
2016-10-08T03:22:58.139Z,93.3
2016-10-08T03:24:11.733Z,94.26
2016-10-08T03:25:24.868Z,93.88
2016-10-08T03:26:38.505Z,94.26
2016-10-08T03:27:52.183Z,94.35
2016-10-08T03:29:05.836Z,94.35
2016-10-08T03:30:19.815Z,94.74
2016-10-08T03:31:33.475Z,94.84
2016-10-08T03:32:47.076Z,94.54
2016-10-08T03:34:00.710Z,94.64
2016-10-08T03:35:13.879Z,94.79
2016-10-08T03:36:27.456Z,94.54
2016-10-08T03:37:41.128Z,94.74
2016-10-08T03:38:54.799Z,94.98
2016-10-08T03:40:08.405Z,94.79
2016-10-08T03:41:21.987Z,95.17
2016-10-08T03:42:35.600Z,95.94
2016-10-08T03:43:49.325Z,95.36
2016-10-08T03:45:02.962Z,94.98
2016-10-08T03:46:16.858Z,94.98
2016-10-08T03:47:29.882Z,95.26
2016-10-08T03:48:42.729Z,94.89
2016-10-08T03:49:56.341Z,95.36
2016-10-08T03:51:10.156Z,94.89
2016-10-08T03:52:23.852Z,94.79
2016-10-08T03:53:37.523Z,94.98
2016-10-08T03:54:51.194Z,94.5
2016-10-08T03:56:04.781Z,94.69
2016-10-08T03:57:18.375Z,94.89
2016-10-08T03:58:32.051Z,95.26
2016-10-08T03:59:45.682Z,94.98
2016-10-08T04:00:59.249Z,94.79
2016-10-08T04:02:12.966Z,94.4
2016-10-08T04:03:26.562Z,94.59
2016-10-08T04:04:40.178Z,94.59
2016-10-08T04:05:53.827Z,95.17
2016-10-08T04:07:07.398Z,94.79
2016-10-08T04:09:48.638Z,94.64
2016-10-08T04:11:02.329Z,94.98
2016-10-08T04:12:15.831Z,94.89
2016-10-08T04:13:29.470Z,95.07
2016-10-08T04:14:43.057Z,94.98
2016-10-08T04:15:56.635Z,95.65
2016-10-08T04:17:10.674Z,95.56
2016-10-08T04:18:23.749Z,95.75
2016-10-08T04:19:37.363Z,95.75
2016-10-08T04:20:51.018Z,95.75
2016-10-08T04:22:04.641Z,95.84
2016-10-08T04:23:18.255Z,96.13
2016-10-08T04:24:31.895Z,96.37
2016-10-08T04:25:45.733Z,96.37
2016-10-08T04:26:59.363Z,96.03
2016-10-08T04:28:12.963Z,95.7
2016-10-08T04:29:26.612Z,95.75
2016-10-08T04:30:40.203Z,95.84
2016-10-08T04:31:53.785Z,95.84
2016-10-08T04:33:07.502Z,95.89
2016-10-08T04:34:20.090Z,95.6
2016-10-08T04:35:33.743Z,95.07
2016-10-08T04:36:47.308Z,95.17
2016-10-08T04:38:00.983Z,95.31
2016-10-08T04:39:14.015Z,95.07
2016-10-08T04:40:27.585Z,95.17
2016-10-08T04:41:41.309Z,95.07
2016-10-08T04:42:54.992Z,95.22
2016-10-08T04:44:08.677Z,95.56
2016-10-08T04:45:22.282Z,95.07
2016-10-08T04:46:35.931Z,95.17
2016-10-08T04:47:50.023Z,94.98
2016-10-08T04:49:03.626Z,95.31
2016-10-08T04:50:17.224Z,95.17
2016-10-08T04:51:30.870Z,95.46
2016-10-08T04:52:44.528Z,95.31
2016-10-08T04:53:58.151Z,94.79
2016-10-08T04:55:11.533Z,95.07
2016-10-08T04:56:25.203Z,94.4
2016-10-08T04:57:38.834Z,95.17
2016-10-08T04:58:52.444Z,95.07
2016-10-08T05:00:05.518Z,95.41
2016-10-08T05:01:19.162Z,95.65
2016-10-08T05:02:32.810Z,95.12
2016-10-08T05:03:46.891Z,94.79
2016-10-08T05:05:00.474Z,94.89
2016-10-08T05:06:14.121Z,95.31
2016-10-08T05:07:27.722Z,95.6
2016-10-08T05:08:40.870Z,95.6
2016-10-08T05:09:54.497Z,95.31
2016-10-08T05:11:09.477Z,95.7
2016-10-08T05:12:23.876Z,95.12
2016-10-08T05:13:37.495Z,94.84
2016-10-08T05:14:51.142Z,94.84
2016-10-08T05:16:04.874Z,94.84
2016-10-08T05:17:18.550Z,95.41
2016-10-08T05:18:32.172Z,95.31
2016-10-08T05:19:45.800Z,95.03
2016-10-08T05:20:59.399Z,94.4
2016-10-08T05:22:12.953Z,94.21
2016-10-08T05:23:26.589Z,94.21
2016-10-08T05:24:39.706Z,95.12
2016-10-08T05:25:53.371Z,95.12
2016-10-08T05:27:06.967Z,95.31
2016-10-08T05:28:20.580Z,94.74
2016-10-08T05:29:34.271Z,94.5
2016-10-08T05:30:47.917Z,94.35
2016-10-08T05:32:01.483Z,94.5
2016-10-08T05:33:14.662Z,94.55
2016-10-08T05:34:28.253Z,94.12
2016-10-08T05:35:41.872Z,93.83
2016-10-08T05:36:55.560Z,94.21
2016-10-08T05:38:09.665Z,93.83
2016-10-08T05:39:23.239Z,94.21
2016-10-08T05:40:36.963Z,94.26
2016-10-08T05:41:50.582Z,94.64
2016-10-08T05:43:04.127Z,94.35
2016-10-08T05:44:17.772Z,95.12
2016-10-08T05:45:31.375Z,95.41
2016-10-08T05:46:45.575Z,94.35
2016-10-08T05:48:00.042Z,94.45
2016-10-08T05:49:13.971Z,94.35
2016-10-08T05:50:27.585Z,94.12
2016-10-08T05:51:41.235Z,94.21
2016-10-08T05:52:54.884Z,94.12
2016-10-08T05:54:08.504Z,94.31
2016-10-08T05:55:22.119Z,95.17
2016-10-08T05:56:35.989Z,94.93
2016-10-08T05:57:50.032Z,95.12
2016-10-08T05:59:03.088Z,96.08
2016-10-08T06:00:16.951Z,95.6
2016-10-08T06:01:30.611Z,96.42
2016-10-08T06:02:43.990Z,96.42
2016-10-08T06:03:57.677Z,97.09
2016-10-08T06:05:11.394Z,96.89
2016-10-08T06:06:24.969Z,96.32
2016-10-08T06:07:38.639Z,96.42
2016-10-08T06:08:52.240Z,96.18
2016-10-08T06:10:05.849Z,95.79
2016-10-08T06:11:19.459Z,95.7
2016-10-08T06:12:33.157Z,95.98
2016-10-08T06:13:46.942Z,96.03
2016-10-08T06:15:00.379Z,95.79
2016-10-08T06:16:13.956Z,96.13
2016-10-08T06:17:27.623Z,96.42
2016-10-08T06:18:41.322Z,96.13
2016-10-08T06:19:54.988Z,96.13
2016-10-08T06:21:08.611Z,96.27
2016-10-08T06:22:22.229Z,96.42
2016-10-08T06:23:35.898Z,95.7
2016-10-08T06:24:50.157Z,95.7
2016-10-08T06:26:03.846Z,95.98
2016-10-08T06:27:17.515Z,96.13
2016-10-08T06:28:31.165Z,96.22
2016-10-08T06:29:44.749Z,95.75
2016-10-08T06:30:57.882Z,96.51
2016-10-08T06:32:11.486Z,96.51
2016-10-08T06:33:24.858Z,96.51
2016-10-08T06:34:38.524Z,96.8
2016-10-08T06:35:52.148Z,96.32
2016-10-08T06:37:06.003Z,96.42
2016-10-08T06:38:20.175Z,96.61
2016-10-08T06:39:33.594Z,96.51
2016-10-08T06:40:47.234Z,96.89
2016-10-08T06:42:00.344Z,96.42
2016-10-08T06:43:14.101Z,96.7
2016-10-08T06:44:27.782Z,96.42
2016-10-08T06:45:41.371Z,95.94
2016-10-08T06:46:55.001Z,96.51
2016-10-08T06:48:08.168Z,96.7
2016-10-08T06:49:21.827Z,96.51
2016-10-08T06:50:35.200Z,96.51
2016-10-08T06:51:48.800Z,96.89
2016-10-08T06:53:02.457Z,96.89
2016-10-08T06:54:16.100Z,96.99
2016-10-08T06:55:29.707Z,96.8
2016-10-08T06:56:43.797Z,96.89
2016-10-08T06:57:57.446Z,96.51
2016-10-08T06:59:11.092Z,96.99
2016-10-08T07:00:24.787Z,97.09
2016-10-08T07:01:38.414Z,97.38
2016-10-08T07:02:52.037Z,96.42
2016-10-08T07:04:05.884Z,96.89
2016-10-08T07:05:19.506Z,96.99
2016-10-08T07:06:32.541Z,97.95
2016-10-08T07:07:46.113Z,97.56
2016-10-08T07:08:59.754Z,97.38
2016-10-08T07:10:13.880Z,97.09
2016-10-08T07:11:27.545Z,97.09
2016-10-08T07:12:41.196Z,96.51
2016-10-08T07:13:54.886Z,96.99
2016-10-08T07:15:08.037Z,96.99
2016-10-08T07:16:21.580Z,96.99
2016-10-08T07:17:35.251Z,96.89
2016-10-08T07:18:48.795Z,96.99
2016-10-08T07:20:02.692Z,96.7
2016-10-08T07:21:16.253Z,96.42
2016-10-08T07:22:29.865Z,96.61
2016-10-08T07:23:43.958Z,97.18
2016-10-08T07:24:57.817Z,97.28
2016-10-08T07:26:11.488Z,97.56
2016-10-08T07:27:25.121Z,97.8
2016-10-08T07:28:38.716Z,97.75
2016-10-08T07:29:52.424Z,97.18
2016-10-08T07:31:06.033Z,97.09
2016-10-08T07:32:20.140Z,96.99
2016-10-08T07:33:33.780Z,96.7
2016-10-08T07:34:47.453Z,96.7
2016-10-08T07:36:01.163Z,97.09
2016-10-08T07:37:14.278Z,97.47
2016-10-08T07:38:27.971Z,97.09
2016-10-08T07:39:41.630Z,97.38
2016-10-08T07:40:55.246Z,96.42
2016-10-08T07:42:08.869Z,96.61
2016-10-08T07:43:21.919Z,96.99
2016-10-08T07:44:35.567Z,97.09
2016-10-08T07:45:49.124Z,97.18
2016-10-08T07:47:02.785Z,96.61
2016-10-08T07:48:16.374Z,96.51
2016-10-08T07:49:29.500Z,96.8
2016-10-08T07:50:43.215Z,96.89
2016-10-08T07:51:56.828Z,96.42
2016-10-08T07:53:10.834Z,96.66
2016-10-08T07:54:24.472Z,96.66
2016-10-08T07:55:38.123Z,96.75
2016-10-08T07:56:51.781Z,96.94
2016-10-08T07:58:05.420Z,96.27
2016-10-08T07:59:19.100Z,96.37
2016-10-08T08:00:32.788Z,96.08
2016-10-08T08:01:46.455Z,96.7
2016-10-08T08:03:00.066Z,96.99
2016-10-08T08:04:13.942Z,96.51
2016-10-08T08:05:27.599Z,96.27
2016-10-08T08:06:40.955Z,96.08
2016-10-08T08:07:54.653Z,96.27
2016-10-08T08:09:08.273Z,96.75
2016-10-08T08:10:21.844Z,96.47
2016-10-08T08:11:35.491Z,96.47
2016-10-08T08:12:49.125Z,96.37
2016-10-08T08:14:02.906Z,96.56
2016-10-08T08:15:16.989Z,96.75
2016-10-08T08:16:30.611Z,96.66
2016-10-08T08:17:44.319Z,96.51
2016-10-08T08:18:57.945Z,96.7
2016-10-08T08:20:11.329Z,96.42
2016-10-08T08:21:25.012Z,96.42
2016-10-08T08:22:38.638Z,96.99
2016-10-08T08:23:51.689Z,97.09
2016-10-08T08:25:05.297Z,96.99
2016-10-08T08:26:18.913Z,97.18
2016-10-08T08:27:32.526Z,97.38
2016-10-08T08:28:46.212Z,97.28
2016-10-08T08:30:30.964Z,96.99
2016-10-08T08:31:44.603Z,96.89
2016-10-08T08:32:58.304Z,96.89
2016-10-08T08:34:11.842Z,97.47
2016-10-08T08:35:25.426Z,97.47
2016-10-08T08:36:39.646Z,97.28
2016-10-08T08:37:53.322Z,97.09
2016-10-08T08:39:06.995Z,97.75
2016-10-08T08:40:20.622Z,97.95
2016-10-08T08:41:33.728Z,97.47
2016-10-08T08:42:47.413Z,97.85
2016-10-08T08:44:01.018Z,98.33
2016-10-08T08:45:14.655Z,97.8
2016-10-08T08:46:28.335Z,98.24
2016-10-08T08:47:42.017Z,98.24
2016-10-08T08:48:55.290Z,98.43
2016-10-08T08:50:08.888Z,98.24
2016-10-08T08:51:22.665Z,98.24
2016-10-08T08:52:36.550Z,98.24
2016-10-08T08:53:50.191Z,98.05
2016-10-08T08:55:03.300Z,98.52
2016-10-08T08:56:17.024Z,98.43
2016-10-08T08:57:30.625Z,97.85
2016-10-08T08:58:44.243Z,97.95
2016-10-08T08:59:57.331Z,97.85
2016-10-08T09:01:11.083Z,98.24
2016-10-08T09:02:24.750Z,98.14
2016-10-08T09:03:38.418Z,98.24
2016-10-08T09:04:52.079Z,98.43
2016-10-08T09:06:05.708Z,98.43
2016-10-08T09:07:18.778Z,98.24
2016-10-08T09:08:32.446Z,98.43
2016-10-08T09:09:46.242Z,97.85
2016-10-08T09:10:59.281Z,98.05
2016-10-08T09:12:12.694Z,98.14
2016-10-08T09:13:25.815Z,97.75
2016-10-08T09:14:38.908Z,97.56
2016-10-08T09:15:52.535Z,97.66
2016-10-08T09:17:05.763Z,97.85
2016-10-08T09:18:19.372Z,97.85
2016-10-08T09:19:33.021Z,97.85
2016-10-08T09:20:47.135Z,97.85
2016-10-08T09:22:00.803Z,98.24
2016-10-08T09:23:14.415Z,98.14
2016-10-08T09:24:27.535Z,98.14
2016-10-08T09:25:40.627Z,97.18
2016-10-08T09:26:53.207Z,96.8
2016-10-08T09:28:06.650Z,97.47
2016-10-08T09:29:20.229Z,98.52
2016-10-08T09:30:33.851Z,98.24
2016-10-08T09:31:47.535Z,98.05
2016-10-08T09:33:00.034Z,98.33
2016-10-08T09:34:13.978Z,97.38
2016-10-08T09:35:27.639Z,97.18
2016-10-08T09:36:40.796Z,97.66
2016-10-08T09:37:54.483Z,98.62
2016-10-08T09:39:08.106Z,97.56
2016-10-08T09:40:21.696Z,97.75
2016-10-08T09:41:35.413Z,97.75
2016-10-08T09:42:49.048Z,98.14
2016-10-08T09:44:02.676Z,97.85
2016-10-08T09:45:15.725Z,97.61
2016-10-08T09:46:29.432Z,97.66
2016-10-08T09:47:43.270Z,98.19
2016-10-08T09:48:56.900Z,97.61
2016-10-08T09:50:10.039Z,98.28
2016-10-08T09:51:23.707Z,97.14
2016-10-08T09:52:36.833Z,97.71
2016-10-08T09:53:50.640Z,97.18
2016-10-08T09:55:04.249Z,97.14
2016-10-08T09:56:17.367Z,97.09
2016-10-08T09:57:31.077Z,97.42
2016-10-08T09:58:44.746Z,97.14
2016-10-08T09:59:58.325Z,97.14
2016-10-08T10:01:11.999Z,96.94
2016-10-08T10:02:25.096Z,97.8
2016-10-08T10:03:38.752Z,97.14
2016-10-08T10:04:51.812Z,97.42
2016-10-08T10:06:04.950Z,97.04
2016-10-08T10:07:18.656Z,97.42
2016-10-08T10:08:32.258Z,97.52
2016-10-08T10:09:45.863Z,97.23
2016-10-08T10:10:59.500Z,97.52
2016-10-08T10:12:12.634Z,97.61
2016-10-08T10:13:25.260Z,97.8
2016-10-08T10:14:38.891Z,97.04
2016-10-08T10:15:52.589Z,96.94
2016-10-08T10:17:06.683Z,96.56
2016-10-08T10:18:20.320Z,96.18
2016-10-08T10:19:33.453Z,96.94
2016-10-08T10:20:47.176Z,96.56
2016-10-08T10:22:00.757Z,96.66
2016-10-08T10:23:13.846Z,96.66
2016-10-08T10:24:27.559Z,96.56
2016-10-08T10:25:41.441Z,95.79
2016-10-08T10:26:54.547Z,95.41
2016-10-08T10:28:08.192Z,95.41
2016-10-08T10:29:21.314Z,94.98
2016-10-08T10:30:34.454Z,94.98
2016-10-08T10:31:47.887Z,94.84
2016-10-08T10:33:01.034Z,94.84
2016-10-08T10:34:14.663Z,94.93
2016-10-08T10:35:28.373Z,95.03
2016-10-08T10:36:42.050Z,95.7
2016-10-08T10:37:55.635Z,94.59
2016-10-08T10:39:09.580Z,94.59
2016-10-08T10:40:23.148Z,94.5
2016-10-08T10:41:36.830Z,94.21
2016-10-08T10:42:50.455Z,95.17
2016-10-08T10:44:04.051Z,94.31
2016-10-08T10:45:17.873Z,94.21
2016-10-08T10:46:30.904Z,93.93
2016-10-08T10:47:44.552Z,93.44
2016-10-08T10:48:58.223Z,93.26
2016-10-08T10:50:11.836Z,94.12
2016-10-08T10:51:25.437Z,93.73
2016-10-08T10:52:39.127Z,92.87
2016-10-08T10:53:52.749Z,92.97
2016-10-08T10:55:05.876Z,92.77
2016-10-08T10:56:19.531Z,93.01
2016-10-08T10:57:33.138Z,92.82
2016-10-08T10:58:47.094Z,91.77
2016-10-08T11:00:00.675Z,91.57
2016-10-08T11:01:14.342Z,90.71
2016-10-08T11:02:27.669Z,90.61
2016-10-08T11:03:41.317Z,90.33
2016-10-08T11:04:54.936Z,90.18
2016-10-08T11:06:08.672Z,90.37
2016-10-08T11:07:22.341Z,89.61
2016-10-08T11:08:35.974Z,90.13
2016-10-08T11:09:49.524Z,89.36
2016-10-08T11:11:02.083Z,89.17
2016-10-08T11:12:15.739Z,88.31
2016-10-08T11:13:28.829Z,88.83
2016-10-08T11:14:42.716Z,87.68
2016-10-08T11:15:55.801Z,87.39
2016-10-08T11:17:09.802Z,87.1
2016-10-08T11:18:23.393Z,86.14
2016-10-08T11:19:37.054Z,85.75
2016-10-08T11:20:49.916Z,85.8
2016-10-08T11:22:03.612Z,85.13
2016-10-08T11:23:17.331Z,85.13
2016-10-08T11:24:30.927Z,84.55
2016-10-08T11:25:44.542Z,83.97
2016-10-08T11:26:58.114Z,83.83
2016-10-08T11:28:11.698Z,83.44
2016-10-08T11:29:24.328Z,83.15
2016-10-08T11:30:37.424Z,82.23
2016-10-08T11:31:51.032Z,81.84
2016-10-08T11:33:04.707Z,81.75
2016-10-08T11:34:18.369Z,80.92
2016-10-08T11:35:31.698Z,80.54
2016-10-08T11:36:44.779Z,79.96
2016-10-08T11:37:58.450Z,79.77
2016-10-08T11:39:11.617Z,79.86
2016-10-08T11:40:24.725Z,79.77
2016-10-08T11:41:37.907Z,79.77
2016-10-08T11:42:51.568Z,79.28
2016-10-08T11:44:05.209Z,79.13
2016-10-08T11:45:18.325Z,78.56
2016-10-08T11:46:32.166Z,78.36
2016-10-08T11:47:45.732Z,78.59
2016-10-08T11:48:58.779Z,78.98
2016-10-08T11:50:11.403Z,77.83
2016-10-08T11:51:24.550Z,77.73
2016-10-08T11:52:37.943Z,77.44
2016-10-08T11:53:51.091Z,75.93
2016-10-08T11:55:04.752Z,75.07
2016-10-08T11:56:18.447Z,75.16
2016-10-08T11:57:32.100Z,74.3
2016-10-08T11:58:45.779Z,74.58
2016-10-08T11:59:59.405Z,74.2
2016-10-08T12:01:13.049Z,73.62
2016-10-08T12:02:26.736Z,73.24
2016-10-08T12:03:40.041Z,73.27
2016-10-08T12:04:53.377Z,73.57
2016-10-08T12:06:06.972Z,73.27
2016-10-08T12:07:20.615Z,72.79
2016-10-08T12:08:34.261Z,72.5
2016-10-08T12:09:47.381Z,72.21
2016-10-08T12:11:00.521Z,72.12
2016-10-08T12:12:13.636Z,73.21
2016-10-08T12:13:27.294Z,72.15
2016-10-08T12:14:41.039Z,72.15
2016-10-08T12:15:54.168Z,71.96
2016-10-08T12:17:07.861Z,71.86
2016-10-08T12:18:21.196Z,71.86
2016-10-08T12:19:34.870Z,71.86
2016-10-08T12:20:48.540Z,73.06
2016-10-08T12:22:01.687Z,73.06
2016-10-08T12:23:15.493Z,70.1
2016-10-08T12:24:28.838Z,68.84
2016-10-08T12:25:42.829Z,67.78
2016-10-08T12:26:55.948Z,67.24
2016-10-08T12:28:09.077Z,67.24
2016-10-08T12:29:22.687Z,67.33
2016-10-08T12:30:35.778Z,67.82
2016-10-08T12:31:49.486Z,68.4
2016-10-08T12:33:03.209Z,68.72
2016-10-08T12:34:17.255Z,68.24
2016-10-08T12:35:29.345Z,69.01
2016-10-08T12:36:43.006Z,68.43
2016-10-08T12:37:56.664Z,67.56
2016-10-08T12:39:10.292Z,67.85
2016-10-08T12:40:23.868Z,66.11
2016-10-08T12:41:37.546Z,66.2
2016-10-08T12:42:50.678Z,66.33
2016-10-08T12:44:03.796Z,64.31
2016-10-08T12:45:17.501Z,63.82
2016-10-08T12:46:31.215Z,64.82
2016-10-08T12:47:44.835Z,64.62
2016-10-08T12:48:57.896Z,65.14
2016-10-08T12:50:11.543Z,64.07
2016-10-08T12:51:25.734Z,62.37
2016-10-08T12:52:39.906Z,62.27
2016-10-08T12:53:53.574Z,60.72
2016-10-08T12:55:06.121Z,61.69
2016-10-08T12:56:20.182Z,60.27
2016-10-08T12:57:33.282Z,61.04
2016-10-08T12:58:47.351Z,60.88
2016-10-08T13:00:00.446Z,60
2016-10-08T13:01:14.240Z,59.71
2016-10-08T13:02:27.273Z,59.61
2016-10-08T13:03:40.600Z,59.23
2016-10-08T13:04:54.317Z,59.52
2016-10-08T13:06:07.691Z,59.45
2016-10-08T13:07:21.375Z,59.06
2016-10-08T13:08:35.029Z,57.93
2016-10-08T13:09:48.179Z,58.12
2016-10-08T13:11:01.754Z,58.8
2016-10-08T13:12:14.874Z,59.09
2016-10-08T13:13:27.679Z,57.73
2016-10-08T13:14:41.167Z,57.57
2016-10-08T13:15:54.864Z,56.34
2016-10-08T13:17:08.535Z,55.46
2016-10-08T13:18:22.375Z,53.74
2016-10-08T13:19:36.106Z,53.45
2016-10-08T13:20:49.755Z,53.45
2016-10-08T13:22:03.424Z,53.08
2016-10-08T13:23:17.382Z,52.79
2016-10-08T13:24:30.913Z,52.21
2016-10-08T13:25:44.583Z,52.16
2016-10-08T13:26:58.349Z,52.62
2016-10-08T13:28:12.096Z,52.26
2016-10-08T13:29:25.166Z,50.73
2016-10-08T13:30:38.805Z,49.68
2016-10-08T13:31:52.452Z,48.27
2016-10-08T13:33:05.623Z,46.83
2016-10-08T13:34:18.759Z,45.8
2016-10-08T13:35:32.387Z,44.84
2016-10-08T13:36:46.055Z,43.48
2016-10-08T13:37:59.733Z,42.71
2016-10-08T13:39:12.331Z,43.52
2016-10-08T13:40:25.941Z,42.36
2016-10-08T13:41:39.105Z,41.8
2016-10-08T13:42:52.233Z,41.33
2016-10-08T13:44:05.410Z,40.86
2016-10-08T13:45:18.532Z,41.15
2016-10-08T13:46:32.171Z,41.72
2016-10-08T13:47:45.827Z,41.89
2016-10-08T13:48:59.515Z,39.54
2016-10-08T13:50:13.188Z,40.53
2016-10-08T13:51:26.272Z,40.35
2016-10-08T13:54:23.650Z,38
2016-10-08T13:55:37.284Z,39.43
2016-10-08T13:56:51.028Z,39.82
2016-10-08T13:58:04.106Z,38
2016-10-08T13:59:17.796Z,37.74
2016-10-08T14:00:31.669Z,37.76
2016-10-08T14:01:44.767Z,37.86
2016-10-08T14:03:29.513Z,36.13
2016-10-08T14:04:43.231Z,36.15
2016-10-08T14:05:55.813Z,34.69
2016-10-08T14:07:09.860Z,35.2
2016-10-08T14:08:22.978Z,34.13
2016-10-08T14:09:36.072Z,33.77
2016-10-08T14:10:49.666Z,33.28
2016-10-08T14:12:03.348Z,33.49
2016-10-08T14:13:16.607Z,34.79
2016-10-08T14:14:29.668Z,34.43
2016-10-08T14:15:43.353Z,35
2016-10-08T14:16:56.955Z,36.02
2016-10-08T14:18:10.277Z,35.99
2016-10-08T14:19:23.959Z,35.67
2016-10-08T14:20:37.659Z,36.15
2016-10-08T14:21:50.736Z,35.95
2016-10-08T14:23:04.451Z,35.55
2016-10-08T14:24:17.581Z,35.28
2016-10-08T14:25:30.739Z,34.08
2016-10-08T14:26:44.427Z,33.53
2016-10-08T14:27:57.555Z,34.13
2016-10-08T14:29:11.164Z,33.36
2016-10-08T14:30:24.251Z,32.6
2016-10-08T14:31:37.990Z,31.83
2016-10-08T14:32:51.872Z,32.98
2016-10-08T14:34:05.552Z,33.34
2016-10-08T14:35:19.234Z,33.43
2016-10-08T14:36:32.308Z,32.56
2016-10-08T14:37:45.475Z,31.92
2016-10-08T14:38:59.069Z,32.03
2016-10-08T14:40:12.950Z,31.54
2016-10-08T14:41:26.635Z,31.93
2016-10-08T14:42:40.241Z,30.17
2016-10-08T14:43:53.941Z,30.04
2016-10-08T14:45:07.601Z,30.04
2016-10-08T14:46:20.393Z,31.21
2016-10-08T14:47:34.019Z,31.39
2016-10-08T14:48:47.645Z,30.49
2016-10-08T14:50:01.328Z,31
2016-10-08T14:51:14.991Z,31.85
2016-10-08T14:52:29.338Z,32.9
2016-10-08T14:53:42.457Z,33.31
2016-10-08T14:54:55.513Z,33
2016-10-08T14:56:08.615Z,32.81
2016-10-08T14:57:20.651Z,34.36
2016-10-08T14:58:33.683Z,34.28
2016-10-08T14:59:47.627Z,34.18
2016-10-08T15:01:00.730Z,33.23
2016-10-08T15:02:13.232Z,32.67
2016-10-08T15:03:26.882Z,33.36
2016-10-08T15:04:40.553Z,32.38
2016-10-08T15:05:54.255Z,31.82
2016-10-08T15:07:07.917Z,31.92
2016-10-08T15:08:20.989Z,31.83
2016-10-08T15:09:34.672Z,32.06
2016-10-08T15:10:48.340Z,32.75
2016-10-08T15:12:01.987Z,31.72
2016-10-08T15:13:15.622Z,31.45
2016-10-08T15:14:29.253Z,31.57
2016-10-08T15:15:43.010Z,32.29
2016-10-08T15:16:56.153Z,31.32
2016-10-08T15:18:08.772Z,31.93
2016-10-08T15:19:21.398Z,30.15
2016-10-08T15:20:34.515Z,30.04
2016-10-08T15:21:48.154Z,29.94
2016-10-08T15:23:01.806Z,30.22
2016-10-08T15:24:15.606Z,29.82
2016-10-08T15:25:29.234Z,29.71
2016-10-08T15:26:42.939Z,29.92
2016-10-08T15:27:56.616Z,31.01
2016-10-08T15:29:10.053Z,29.93
2016-10-08T15:30:23.415Z,30.63
2016-10-08T15:31:36.041Z,32
2016-10-08T15:32:49.717Z,33.18
2016-10-08T15:34:03.380Z,31.54
2016-10-08T15:35:17.183Z,31.57
2016-10-08T15:36:30.836Z,29.92
2016-10-08T15:37:44.503Z,28.93
2016-10-08T15:38:57.583Z,29.92
2016-10-08T15:40:11.271Z,29.64
2016-10-08T15:41:24.919Z,30.21
2016-10-08T15:42:38.583Z,30.32
2016-10-08T15:43:52.206Z,30.3
2016-10-08T15:45:05.832Z,29.82
2016-10-08T15:46:18.993Z,30.21
2016-10-08T15:47:32.114Z,31.1
2016-10-08T15:48:45.727Z,32.45
2016-10-08T15:49:59.384Z,32.04
2016-10-08T15:51:13.022Z,31.93
2016-10-08T15:52:26.654Z,32.41
2016-10-08T15:53:40.012Z,32.98
2016-10-08T15:54:53.684Z,33.36
2016-10-08T15:56:07.353Z,33.05
2016-10-08T15:57:20.860Z,34.1
2016-10-08T15:58:34.560Z,35.93